Time;durP1;ratioP1;P1;durP2;ratioP2;P2;SDS_P1;SDS_P2;PMS_P1;PMS_P2;Temp;Humidity;BMP_temperature;BMP_pressure;BME280_temperature;BME280_humidity;BME280_pressure;Samples;Min_cycle;Max_cycle;Signal;HPM_P1;HPM_P2
2022/03/16 00:02:33;;;;;;;65.32;28.17;;;10.20;99.60;;;;;;6179111;28;20141;-82
2022/03/16 00:05:34;;;;;;;67.03;27.77;;;10.20;99.60;;;;;;6177145;28;20063;-82
2022/03/16 00:08:36;;;;;;;73.30;28.20;;;10.20;99.50;;;;;;6178691;28;20050;-82
2022/03/16 00:11:38;;;;;;;66.82;27.17;;;10.20;99.50;;;;;;6178084;28;20062;-83
2022/03/16 00:14:40;;;;;;;70.50;28.30;;;10.20;99.30;;;;;;6178753;28;20137;-82
2022/03/16 00:17:44;;;;;;;71.95;27.92;;;10.20;99.30;;;;;;6178063;28;20043;-82
2022/03/16 00:20:45;;;;;;;68.68;29.50;;;10.20;99.10;;;;;;6178464;28;20129;-82
2022/03/16 00:23:48;;;;;;;68.90;28.20;;;10.10;99.40;;;;;;6178656;28;20051;-83
2022/03/16 00:26:50;;;;;;;65.57;27.30;;;10.10;99.30;;;;;;6178523;28;20046;-82
2022/03/16 00:29:52;;;;;;;78.60;29.75;;;10.10;99.40;;;;;;6177431;28;20051;-82
2022/03/16 00:32:55;;;;;;;76.53;31.10;;;10.00;99.40;;;;;;6177891;28;20050;-82
2022/03/16 00:35:57;;;;;;;71.25;30.13;;;10.10;99.10;;;;;;6180419;28;20050;-81
2022/03/16 00:38:58;;;;;;;77.10;29.02;;;10.00;99.30;;;;;;6182556;28;20505;-81
2022/03/16 00:42:03;;;;;;;83.03;31.58;;;10.00;99.10;;;;;;6182540;28;20046;-81
2022/03/16 00:45:05;;;;;;;78.95;30.85;;;10.00;99.10;;;;;;6182400;28;20047;-81
2022/03/16 00:48:08;;;;;;;73.45;28.90;;;9.90;99.00;;;;;;6182583;28;20117;-81
2022/03/16 00:51:10;;;;;;;77.72;30.10;;;9.90;99.20;;;;;;6182726;28;20055;-82
2022/03/16 00:54:12;;;;;;;82.00;31.27;;;9.90;99.40;;;;;;6182101;28;20137;-82
2022/03/16 00:57:14;;;;;;;83.55;31.58;;;10.00;99.20;;;;;;6181121;28;20158;-82
2022/03/16 01:00:16;;;;;;;85.22;30.55;;;10.00;99.10;;;;;;6180883;28;20535;-84
2022/03/16 01:03:19;;;;;;;77.07;29.65;;;9.90;98.70;;;;;;6183308;28;20051;-82
2022/03/16 01:06:21;;;;;;;79.78;30.95;;;9.90;99.10;;;;;;6181540;28;20109;-82
2022/03/16 01:09:23;;;;;;;78.03;32.00;;;9.80;98.80;;;;;;6182599;28;20126;-82
2022/03/16 01:12:25;;;;;;;91.88;33.63;;;9.80;98.80;;;;;;6180672;28;20051;-81
2022/03/16 01:15:27;;;;;;;80.93;31.88;;;9.70;99.20;;;;;;6182539;28;20051;-82
2022/03/16 01:18:30;;;;;;;84.85;31.90;;;9.70;99.30;;;;;;6181816;28;20122;-83
2022/03/16 01:21:32;;;;;;;89.78;31.85;;;9.80;99.30;;;;;;6182552;28;20054;-82
2022/03/16 01:24:34;;;;;;;93.25;31.88;;;9.90;99.80;;;;;;6180959;28;20054;-83
2022/03/16 01:27:36;;;;;;;88.55;33.63;;;9.90;99.50;;;;;;6180631;28;20440;-83
2022/03/16 01:30:37;;;;;;;90.97;30.70;;;10.00;99.40;;;;;;6179946;28;20139;-81
2022/03/16 01:33:40;;;;;;;83.47;31.17;;;10.00;99.20;;;;;;6180565;28;20131;-82
2022/03/16 01:36:42;;;;;;;91.25;32.63;;;10.00;99.20;;;;;;6180605;28;20054;-82
2022/03/16 01:39:44;;;;;;;87.53;32.45;;;10.00;98.90;;;;;;6179817;28;22953;-83
2022/03/16 01:42:46;;;;;;;97.90;32.42;;;10.00;98.90;;;;;;6181057;28;20053;-82
2022/03/16 01:45:48;;;;;;;90.07;31.20;;;9.90;98.90;;;;;;6179576;28;20069;-83
2022/03/16 01:48:52;;;;;;;85.55;31.30;;;10.00;99.10;;;;;;6177991;28;20055;-82
2022/03/16 01:51:54;;;;;;;90.80;34.15;;;10.00;98.90;;;;;;6179604;28;20047;-82
2022/03/16 01:54:58;;;;;;;87.80;32.42;;;10.00;99.10;;;;;;6179283;28;20051;-81
2022/03/16 01:58:01;;;;;;;104.22;32.97;;;10.00;98.80;;;;;;6179555;28;20051;-81
2022/03/16 02:01:03;;;;;;;85.20;32.47;;;10.00;98.90;;;;;;6178492;28;20046;-81
2022/03/16 02:04:06;;;;;;;92.35;31.33;;;10.00;98.80;;;;;;6178409;28;20073;-81
2022/03/16 02:07:09;;;;;;;95.78;32.92;;;9.90;98.70;;;;;;6179280;28;20049;-83
2022/03/16 02:10:11;;;;;;;84.50;30.30;;;9.80;98.70;;;;;;6179115;28;20423;-82
2022/03/16 02:13:13;;;;;;;88.07;34.80;;;9.80;98.90;;;;;;6179137;28;20054;-82
2022/03/16 02:16:15;;;;;;;89.13;32.75;;;9.80;98.80;;;;;;6178752;28;20072;-83
2022/03/16 02:19:18;;;;;;;99.65;34.63;;;9.80;98.50;;;;;;6179424;28;20094;-82
2022/03/16 02:22:20;;;;;;;102.80;34.55;;;9.70;98.70;;;;;;6179108;28;20077;-82
2022/03/16 02:25:24;;;;;;;97.25;33.28;;;9.70;98.80;;;;;;6178630;28;20168;-82
2022/03/16 02:28:26;;;;;;;97.88;33.28;;;9.70;98.70;;;;;;6177635;28;20042;-82
2022/03/16 02:31:28;;;;;;;99.93;32.65;;;9.70;99.00;;;;;;6236111;22;20430;-82
2022/03/16 02:34:31;;;;;;;96.10;29.48;;;9.80;99.00;;;;;;6224226;28;20076;-81
2022/03/16 02:37:40;;;;;;;102.35;32.13;;;9.80;98.80;;;;;;6222055;28;20076;-82
2022/03/16 02:40:48;;;;;;;110.22;33.03;;;9.80;98.70;;;;;;6224184;28;20072;-82
2022/03/16 02:43:53;;;;;;;101.65;33.92;;;9.70;98.70;;;;;;6227140;28;20499;-83
2022/03/16 02:50:48;;;;;;;109.63;36.13;;;9.70;98.70;;;;;;6224417;28;20557;-82
2022/03/16 02:53:52;;;;;;;102.53;34.72;;;9.70;98.80;;;;;;6228412;28;20196;-82
2022/03/16 02:56:57;;;;;;;118.30;36.33;;;9.70;98.80;;;;;;6225232;28;20069;-82
2022/03/16 03:00:03;;;;;;;99.45;35.08;;;9.60;99.00;;;;;;6224694;28;20056;-82
2022/03/16 03:03:10;;;;;;;137.60;36.78;;;9.70;98.90;;;;;;6224545;28;20570;-83
2022/03/16 03:06:18;;;;;;;117.35;35.05;;;9.70;98.70;;;;;;6222906;28;20423;-83
2022/03/16 03:12:52;;;;;;;107.65;32.90;;;9.70;98.80;;;;;;6222603;28;20496;-82
2022/03/16 03:16:03;;;;;;;121.22;34.28;;;9.70;98.60;;;;;;6220381;28;20057;-82
2022/03/16 03:19:06;;;;;;;123.93;35.95;;;9.70;98.90;;;;;;6223419;28;20061;-83
2022/03/16 03:22:09;;;;;;;118.97;36.75;;;9.80;98.90;;;;;;6222031;28;20072;-82
2022/03/16 03:25:15;;;;;;;107.53;34.22;;;9.80;98.80;;;;;;6222520;28;20050;-83
2022/03/16 03:28:18;;;;;;;116.80;35.45;;;9.80;98.80;;;;;;6223650;28;20483;-82
2022/03/16 03:31:20;;;;;;;122.35;34.97;;;9.80;98.50;;;;;;6223921;28;20050;-82
2022/03/16 03:34:26;;;;;;;129.60;36.10;;;9.80;98.50;;;;;;6221879;28;20466;-84
2022/03/16 03:37:29;;;;;;;123.30;36.25;;;9.80;98.50;;;;;;6223769;28;20053;-83
2022/03/16 03:40:35;;;;;;;109.63;30.60;;;9.80;98.80;;;;;;6221155;28;20058;-82
2022/03/16 03:43:41;;;;;;;117.05;32.78;;;9.80;98.60;;;;;;6227217;28;20065;-84
2022/03/16 03:47:10;;;;;;;118.75;35.55;;;9.80;98.70;;;;;;6227110;28;20056;-84
2022/03/16 03:50:13;;;;;;;119.47;33.20;;;9.80;98.60;;;;;;6225796;28;20512;-82
2022/03/16 03:53:16;;;;;;;81.88;28.50;;;9.80;98.30;;;;;;6226904;28;20061;-84
2022/03/16 03:56:18;;;;;;;122.07;34.90;;;9.80;98.30;;;;;;6232760;28;20574;-82
2022/03/16 03:59:23;;;;;;;135.18;38.70;;;9.70;98.30;;;;;;6231012;28;20053;-84
2022/03/16 04:02:24;;;;;;;116.68;35.78;;;9.70;98.60;;;;;;6227507;28;20045;-83
2022/03/16 04:05:26;;;;;;;112.63;33.60;;;9.70;98.40;;;;;;6225939;28;20106;-83
2022/03/16 04:08:28;;;;;;;107.70;31.52;;;9.70;98.30;;;;;;6225830;28;20438;-83
2022/03/16 04:11:30;;;;;;;102.03;31.50;;;9.70;98.50;;;;;;6227380;28;20181;-83
2022/03/16 04:14:33;;;;;;;114.97;32.42;;;9.70;98.40;;;;;;6231011;28;20054;-83
2022/03/16 04:17:35;;;;;;;115.97;33.83;;;9.60;98.50;;;;;;6231138;28;20065;-84
2022/03/16 04:20:37;;;;;;;118.80;36.08;;;9.70;98.60;;;;;;6230225;28;20069;-83
2022/03/16 04:23:38;;;;;;;126.35;36.20;;;9.80;98.60;;;;;;6230567;28;20083;-83
2022/03/16 04:26:40;;;;;;;116.75;35.42;;;9.90;98.20;;;;;;6230776;28;20057;-84
2022/03/16 04:29:43;;;;;;;115.88;34.55;;;9.80;98.40;;;;;;6229827;28;20054;-83
2022/03/16 04:32:46;;;;;;;124.28;32.67;;;9.80;98.40;;;;;;6231252;28;20185;-83
2022/03/16 04:35:48;;;;;;;108.45;32.95;;;9.80;98.30;;;;;;6229767;28;20507;-82
2022/03/16 04:38:50;;;;;;;117.07;35.40;;;9.80;98.20;;;;;;6230466;28;20143;-82
2022/03/16 04:41:52;;;;;;;117.68;31.52;;;9.80;98.40;;;;;;6229266;28;20045;-83
2022/03/16 04:44:55;;;;;;;108.05;33.13;;;9.80;98.30;;;;;;6230037;28;20065;-83
2022/03/16 04:47:57;;;;;;;108.18;33.47;;;9.80;98.20;;;;;;6229551;28;20164;-83
2022/03/16 04:50:58;;;;;;;116.68;33.83;;;9.80;98.10;;;;;;6229901;28;20064;-83
2022/03/16 04:54:00;;;;;;;108.25;33.17;;;9.80;98.10;;;;;;6228935;28;20081;-83
2022/03/16 04:57:02;;;;;;;107.60;33.97;;;9.80;97.90;;;;;;6227739;28;20133;-82
2022/03/16 05:00:07;;;;;;;113.35;32.75;;;9.70;97.70;;;;;;6228184;28;20415;-82
2022/03/16 05:03:09;;;;;;;110.07;35.05;;;9.70;98.30;;;;;;6228349;28;20085;-82
2022/03/16 05:06:10;;;;;;;111.38;32.70;;;9.70;98.30;;;;;;6227938;28;20184;-83
2022/03/16 05:09:12;;;;;;;102.70;31.02;;;9.80;98.20;;;;;;6228243;28;20054;-83
2022/03/16 05:12:14;;;;;;;109.97;32.78;;;9.80;98.20;;;;;;6227632;28;20057;-83
2022/03/16 05:15:19;;;;;;;98.10;31.55;;;9.80;98.30;;;;;;6233601;28;20080;-83
2022/03/16 05:18:23;;;;;;;102.47;32.42;;;9.80;97.90;;;;;;6230977;28;20042;-84
2022/03/16 05:21:24;;;;;;;109.60;32.13;;;9.80;98.00;;;;;;6229079;28;20115;-83
2022/03/16 05:24:26;;;;;;;91.75;30.60;;;9.70;98.20;;;;;;6228855;28;20155;-83
2022/03/16 05:27:28;;;;;;;87.07;29.55;;;9.70;98.10;;;;;;6229650;28;20065;-82
2022/03/16 05:30:31;;;;;;;89.63;30.23;;;9.70;98.10;;;;;;6229046;28;20086;-83
2022/03/16 05:33:33;;;;;;;104.68;31.05;;;9.70;97.90;;;;;;6229014;28;20096;-83
2022/03/16 05:36:36;;;;;;;98.15;30.85;;;9.70;98.30;;;;;;6228657;28;20058;-83
2022/03/16 05:39:52;;;;;;;94.20;31.67;;;9.70;97.90;;;;;;6228095;28;20097;-83
2022/03/16 05:42:57;;;;;;;90.78;30.25;;;9.60;98.00;;;;;;6229740;28;20058;-83
2022/03/16 05:46:01;;;;;;;93.60;28.55;;;9.60;97.90;;;;;;6227607;28;20055;-83
2022/03/16 05:49:03;;;;;;;97.25;28.45;;;9.60;97.80;;;;;;6228122;28;20046;-83
2022/03/16 05:52:16;;;;;;;90.63;31.13;;;9.60;97.90;;;;;;6227560;28;20060;-83
2022/03/16 05:55:18;;;;;;;91.25;28.38;;;9.60;98.30;;;;;;6228209;28;20057;-83
2022/03/16 05:58:21;;;;;;;80.38;28.95;;;9.60;98.10;;;;;;6227175;28;20042;-83
2022/03/16 06:01:24;;;;;;;103.55;37.47;;;9.70;97.90;;;;;;6228155;28;20147;-83
2022/03/16 06:04:26;;;;;;;86.05;30.83;;;9.70;98.10;;;;;;6227670;28;20507;-82
2022/03/16 06:07:28;;;;;;;99.95;30.58;;;9.80;97.50;;;;;;6227613;28;20486;-83
2022/03/16 06:10:30;;;;;;;73.70;25.63;;;9.80;97.90;;;;;;6227911;28;20089;-82
2022/03/16 06:13:32;;;;;;;88.97;31.38;;;9.90;97.30;;;;;;6227258;28;20057;-83
2022/03/16 06:16:35;;;;;;;83.82;27.92;;;9.80;97.40;;;;;;6227547;28;20042;-83
2022/03/16 06:19:37;;;;;;;78.07;28.50;;;9.80;97.30;;;;;;6227499;28;20485;-82
2022/03/16 06:22:38;;;;;;;80.10;27.90;;;9.80;97.60;;;;;;6228144;28;20560;-83
2022/03/16 06:25:41;;;;;;;68.30;25.27;;;9.80;97.30;;;;;;6226498;28;20053;-83
2022/03/16 06:28:43;;;;;;;57.50;23.33;;;9.90;97.20;;;;;;6227141;28;20115;-82
2022/03/16 06:31:46;;;;;;;70.60;28.63;;;9.90;97.10;;;;;;6226452;28;20126;-82
2022/03/16 06:34:48;;;;;;;61.05;26.83;;;9.80;97.10;;;;;;6227273;28;20073;-82
2022/03/16 06:37:50;;;;;;;65.13;26.92;;;9.80;96.90;;;;;;6227086;28;20045;-82
2022/03/16 06:40:53;;;;;;;64.35;26.60;;;9.90;97.10;;;;;;6226905;28;20109;-83
2022/03/16 06:43:59;;;;;;;58.17;23.77;;;10.00;97.10;;;;;;6226856;28;20054;-83
2022/03/16 06:47:02;;;;;;;50.15;23.17;;;10.00;96.70;;;;;;6225304;28;20073;-83
2022/03/16 06:50:05;;;;;;;59.05;24.63;;;10.00;96.70;;;;;;6225599;28;20072;-82
2022/03/16 06:53:07;;;;;;;52.30;23.02;;;10.00;96.60;;;;;;6226107;28;20046;-82
2022/03/16 06:56:11;;;;;;;63.42;24.83;;;10.00;97.00;;;;;;6225214;28;20057;-82
2022/03/16 06:59:14;;;;;;;60.47;25.17;;;10.20;96.50;;;;;;6226385;28;20058;-82
2022/03/16 07:02:25;;;;;;;53.50;23.98;;;10.20;96.40;;;;;;6225963;28;20042;-83
2022/03/16 07:05:29;;;;;;;61.03;26.48;;;10.30;96.30;;;;;;6225661;28;20049;-82
2022/03/16 07:08:30;;;;;;;41.85;20.92;;;10.30;96.40;;;;;;6226233;28;20053;-82
2022/03/16 07:11:32;;;;;;;49.25;22.77;;;10.40;96.70;;;;;;6226184;28;20056;-83
2022/03/16 07:14:35;;;;;;;59.17;26.23;;;10.50;96.60;;;;;;6226375;28;20108;-82
2022/03/16 07:17:38;;;;;;;53.10;22.88;;;10.60;96.70;;;;;;6225957;28;20045;-82
2022/03/16 07:20:40;;;;;;;48.17;21.88;;;10.70;96.10;;;;;;6226581;28;20129;-83
2022/03/16 07:23:42;;;;;;;49.97;23.92;;;10.70;96.10;;;;;;6231557;28;20053;-82
2022/03/16 07:26:44;;;;;;;47.83;21.20;;;10.80;96.30;;;;;;6234724;28;20046;-82
2022/03/16 07:29:45;;;;;;;48.20;22.17;;;11.00;96.60;;;;;;6227961;28;20415;-82
2022/03/16 07:32:49;;;;;;;45.15;21.65;;;11.10;96.50;;;;;;6226662;28;20162;-82
2022/03/16 07:35:51;;;;;;;44.10;22.33;;;11.20;96.80;;;;;;6224333;28;20112;-82
2022/03/16 07:38:53;;;;;;;38.35;19.88;;;11.40;96.80;;;;;;6199086;28;20521;-82
2022/03/16 07:41:59;;;;;;;39.70;20.65;;;11.50;96.50;;;;;;6236672;28;20057;-83
2022/03/16 07:45:02;;;;;;;41.38;22.05;;;11.60;96.50;;;;;;6228639;28;20073;-83
2022/03/16 07:48:05;;;;;;;46.60;23.58;;;11.80;96.60;;;;;;6230043;28;20080;-82
2022/03/16 07:51:30;;;;;;;41.95;21.55;;;11.80;96.00;;;;;;6213885;28;20072;-81
2022/03/16 07:54:32;;;;;;;40.83;19.67;;;11.90;95.60;;;;;;6224321;28;20042;-81
2022/03/16 07:57:34;;;;;;;45.17;20.00;;;12.00;96.00;;;;;;6230331;28;20048;-81
2022/03/16 08:00:35;;;;;;;51.88;19.77;;;12.00;96.20;;;;;;6229668;28;20069;-83
2022/03/16 08:03:39;;;;;;;44.58;21.25;;;12.10;95.90;;;;;;6229737;28;20164;-84
2022/03/16 08:06:41;;;;;;;41.05;21.15;;;12.20;95.00;;;;;;6222017;28;20044;-82
2022/03/16 08:09:43;;;;;;;45.45;24.20;;;12.20;94.30;;;;;;6219047;28;20101;-83
2022/03/16 08:12:44;;;;;;;43.22;21.98;;;12.20;94.80;;;;;;6229376;28;20045;-81
2022/03/16 08:15:46;;;;;;;42.10;22.20;;;12.20;94.60;;;;;;6231261;28;20105;-82
2022/03/16 08:18:49;;;;;;;41.63;18.92;;;12.40;95.30;;;;;;6236769;28;20192;-82
2022/03/16 08:21:51;;;;;;;42.25;21.63;;;12.60;94.00;;;;;;6237286;28;20042;-81
2022/03/16 08:28:10;;;;;;;39.85;20.30;;;12.80;94.70;;;;;;6214967;28;20046;-81
2022/03/16 08:31:12;;;;;;;38.75;19.65;;;12.90;94.50;;;;;;6284353;22;20149;-84
2022/03/16 08:34:15;;;;;;;38.97;19.45;;;13.20;94.30;;;;;;6279296;28;20230;-84
2022/03/16 08:37:17;;;;;;;47.75;22.60;;;13.20;93.50;;;;;;6282126;28;20057;-84
2022/03/16 08:40:20;;;;;;;39.92;20.52;;;13.30;93.10;;;;;;6280840;28;20049;-87
2022/03/16 08:43:21;;;;;;;43.08;20.58;;;13.40;92.70;;;;;;6280499;28;20494;-85
2022/03/16 08:46:24;;;;;;;43.47;19.70;;;13.50;92.20;;;;;;6278454;28;20422;-86
2022/03/16 08:49:29;;;;;;;42.58;19.50;;;13.60;91.60;;;;;;6280307;28;20087;-85
2022/03/16 08:52:31;;;;;;;44.70;21.00;;;13.60;91.80;;;;;;6279602;28;20049;-85
2022/03/16 08:55:33;;;;;;;43.17;19.13;;;13.70;91.40;;;;;;6263859;28;20540;-86
2022/03/16 08:58:35;;;;;;;39.88;20.20;;;13.80;91.10;;;;;;6256450;28;20056;-85
2022/03/16 09:01:37;;;;;;;47.50;20.13;;;13.90;90.60;;;;;;6256336;28;20503;-85
2022/03/16 09:04:40;;;;;;;38.58;19.90;;;13.80;90.50;;;;;;6256924;28;20056;-82
2022/03/16 09:07:42;;;;;;;40.28;18.92;;;13.90;90.50;;;;;;6257518;28;20056;-84
2022/03/16 09:10:45;;;;;;;35.67;18.65;;;14.00;90.30;;;;;;6257727;28;20103;-86
2022/03/16 09:13:47;;;;;;;39.53;19.10;;;13.90;89.50;;;;;;6267413;28;20050;-86
2022/03/16 09:16:49;;;;;;;37.83;18.30;;;13.90;90.30;;;;;;6261427;28;20046;-86
2022/03/16 09:19:53;;;;;;;41.50;20.02;;;13.90;89.30;;;;;;6268159;28;20135;-85
2022/03/16 09:22:55;;;;;;;46.35;21.20;;;14.00;89.40;;;;;;6273865;28;20053;-87
2022/03/16 09:26:00;;;;;;;41.20;18.95;;;14.00;89.60;;;;;;6280336;28;20045;-87
2022/03/16 09:29:02;;;;;;;41.10;18.13;;;14.00;88.60;;;;;;6269851;28;20107;-86
2022/03/16 09:32:06;;;;;;;43.45;19.90;;;14.10;90.40;;;;;;6279671;28;20064;-86
2022/03/16 09:35:09;;;;;;;44.55;20.38;;;14.40;88.00;;;;;;6278413;28;20100;-86
2022/03/16 09:38:12;;;;;;;40.92;20.02;;;14.40;87.10;;;;;;6280029;28;20048;-87
2022/03/16 09:41:13;;;;;;;37.20;19.33;;;14.50;88.20;;;;;;6281481;28;20103;-87
2022/03/16 09:44:15;;;;;;;37.13;16.73;;;14.80;87.30;;;;;;6284020;28;20132;-86
2022/03/16 09:47:18;;;;;;;43.67;18.10;;;15.00;85.70;;;;;;6287103;28;20112;-86
2022/03/16 09:50:21;;;;;;;37.65;19.50;;;15.00;85.30;;;;;;6275864;28;20045;-84
2022/03/16 09:53:23;;;;;;;41.17;17.23;;;15.00;83.70;;;;;;6277380;28;20104;-86
2022/03/16 09:56:26;;;;;;;41.50;19.75;;;14.80;84.70;;;;;;6295297;28;20109;-86
2022/03/16 09:59:27;;;;;;;38.47;19.85;;;14.80;84.50;;;;;;6280227;28;20136;-86
2022/03/16 10:02:31;;;;;;;32.33;17.55;;;14.90;84.60;;;;;;6279356;28;20049;-86
2022/03/16 10:05:34;;;;;;;34.88;18.63;;;15.10;83.80;;;;;;6282168;28;20090;-85
2022/03/16 10:08:37;;;;;;;32.25;15.48;;;15.10;83.60;;;;;;6281952;28;20127;-86
2022/03/16 10:15:04;;;;;;;30.38;14.90;;;15.10;83.20;;;;;;6282312;28;20056;-86
2022/03/16 10:18:06;;;;;;;36.25;18.02;;;15.00;82.40;;;;;;6282287;28;20395;-86
2022/03/16 10:21:09;;;;;;;35.17;17.73;;;15.10;82.60;;;;;;6264316;28;20095;-86
2022/03/16 10:24:13;;;;;;;38.25;19.02;;;15.20;82.90;;;;;;6256997;28;20072;-85
2022/03/16 10:27:18;;;;;;;32.03;16.45;;;15.30;82.70;;;;;;6257679;28;20055;-86
2022/03/16 10:30:20;;;;;;;32.63;17.75;;;15.40;81.90;;;;;;6256382;28;20132;-86
2022/03/16 10:33:22;;;;;;;24.70;13.52;;;15.40;81.80;;;;;;6256278;28;20045;-85
2022/03/16 10:36:26;;;;;;;35.03;18.15;;;15.40;80.80;;;;;;6256148;28;20099;-86
2022/03/16 10:39:36;;;;;;;32.58;18.60;;;15.40;82.50;;;;;;6256456;28;20108;-86
2022/03/16 10:49:20;;;;;;;31.83;17.55;;;15.60;81.30;;;;;;6260624;28;20044;-86
2022/03/16 10:52:23;;;;;;;30.23;15.68;;;15.50;80.80;;;;;;6267790;28;20057;-85
2022/03/16 10:55:26;;;;;;;25.88;13.55;;;15.50;81.10;;;;;;6253896;28;20506;-86
2022/03/16 10:58:29;;;;;;;27.88;15.23;;;15.50;81.40;;;;;;6254216;28;20698;-86
2022/03/16 11:01:33;;;;;;;40.20;17.27;;;15.50;81.50;;;;;;6255374;28;20565;-85
2022/03/16 11:04:36;;;;;;;29.77;15.48;;;15.60;81.60;;;;;;6255794;28;20053;-85
2022/03/16 11:07:40;;;;;;;34.92;16.20;;;15.80;81.30;;;;;;6255926;28;20056;-86
2022/03/16 11:10:43;;;;;;;28.63;16.23;;;16.00;80.20;;;;;;6256744;28;20049;-86
2022/03/16 11:13:45;;;;;;;33.47;14.38;;;16.10;80.20;;;;;;6252830;28;20257;-84
2022/03/16 11:16:47;;;;;;;30.30;14.90;;;16.20;79.50;;;;;;6252670;28;20041;-86
2022/03/16 11:19:52;;;;;;;25.05;13.07;;;16.10;79.40;;;;;;6256847;28;20077;-85
2022/03/16 11:26:26;;;;;;;25.35;13.05;;;15.80;80.60;;;;;;6255480;28;20049;-87
2022/03/16 11:29:38;;;;;;;30.63;15.15;;;15.90;80.20;;;;;;6268407;28;20038;-84
2022/03/16 11:32:41;;;;;;;28.48;15.88;;;15.60;81.00;;;;;;6259532;28;20060;-86
2022/03/16 11:35:45;;;;;;;28.38;16.33;;;15.60;81.90;;;;;;6251775;28;20495;-86
2022/03/16 11:38:48;;;;;;;26.30;15.48;;;15.80;82.30;;;;;;6253427;28;20045;-86
2022/03/16 11:41:52;;;;;;;32.40;15.93;;;16.10;81.30;;;;;;6253304;28;20541;-85
2022/03/16 11:44:54;;;;;;;31.33;13.15;;;16.10;80.20;;;;;;6252463;28;20077;-86
2022/03/16 11:47:55;;;;;;;26.98;13.02;;;15.90;80.30;;;;;;6253061;28;20186;-86
2022/03/16 11:51:16;;;;;;;34.05;15.90;;;15.80;80.50;;;;;;6262674;28;20132;-86
2022/03/16 11:54:19;;;;;;;27.40;13.60;;;15.60;82.20;;;;;;6253650;28;20146;-85
2022/03/16 11:57:37;;;;;;;27.33;12.48;;;15.60;82.60;;;;;;6249919;28;20100;-85
2022/03/16 12:00:39;;;;;;;23.90;12.45;;;15.70;81.60;;;;;;6254899;28;20307;-85
2022/03/16 12:03:44;;;;;;;30.05;12.30;;;15.50;81.50;;;;;;6252009;28;20095;-81
2022/03/16 12:06:51;;;;;;;28.52;15.85;;;15.40;82.00;;;;;;6251203;28;20057;-83
2022/03/16 12:10:04;;;;;;;28.63;14.07;;;15.50;83.20;;;;;;6250826;28;20045;-83
2022/03/16 12:13:09;;;;;;;18.05;9.95;;;15.40;82.30;;;;;;6250809;28;20049;-84
2022/03/16 12:16:14;;;;;;;26.65;13.93;;;15.40;82.80;;;;;;6253842;28;20042;-84
2022/03/16 12:19:32;;;;;;;25.42;12.88;;;15.30;83.50;;;;;;6258483;28;20052;-84
2022/03/16 12:22:37;;;;;;;25.45;13.13;;;15.40;82.50;;;;;;6263111;28;20060;-83
2022/03/16 12:25:42;;;;;;;27.70;14.52;;;15.50;82.60;;;;;;6251953;28;20052;-84
2022/03/16 12:28:59;;;;;;;25.67;13.90;;;15.70;82.80;;;;;;6252213;28;20049;-83
2022/03/16 12:32:01;;;;;;;28.45;13.88;;;16.00;82.10;;;;;;6252305;28;20056;-84
2022/03/16 12:35:04;;;;;;;30.63;14.70;;;16.20;81.50;;;;;;6256393;28;20049;-84
2022/03/16 12:38:09;;;;;;;29.17;15.10;;;16.10;81.20;;;;;;6255163;28;20177;-84
2022/03/16 12:44:42;;;;;;;26.70;13.88;;;16.30;80.80;;;;;;6255856;28;20045;-84
2022/03/16 12:47:56;;;;;;;30.40;15.30;;;16.50;82.30;;;;;;6258329;28;20088;-85
2022/03/16 12:50:58;;;;;;;24.05;13.55;;;16.70;82.00;;;;;;6265396;28;20418;-85
2022/03/16 12:53:59;;;;;;;23.98;13.02;;;17.00;81.40;;;;;;6287006;28;20041;-85
2022/03/16 12:57:06;;;;;;;30.55;14.20;;;17.10;79.10;;;;;;6284139;28;20462;-85
2022/03/16 13:00:13;;;;;;;25.02;14.18;;;17.20;78.40;;;;;;6282589;28;20052;-85
2022/03/16 13:03:15;;;;;;;26.80;14.88;;;17.00;77.40;;;;;;6282383;28;20049;-85
2022/03/16 13:06:20;;;;;;;27.00;14.07;;;16.90;79.70;;;;;;6291278;28;20043;-82
2022/03/16 13:09:21;;;;;;;29.95;13.27;;;17.00;78.10;;;;;;6285257;28;20056;-85
2022/03/16 13:12:26;;;;;;;24.95;13.32;;;16.90;77.50;;;;;;6280388;28;20045;-84
2022/03/16 13:15:28;;;;;;;29.92;14.57;;;16.80;80.50;;;;;;6279755;28;20616;-84
2022/03/16 13:18:31;;;;;;;23.27;12.77;;;16.90;78.60;;;;;;6280351;28;20040;-84
2022/03/16 13:21:34;;;;;;;22.05;12.65;;;17.00;79.60;;;;;;6267404;28;20044;-86
2022/03/16 13:24:37;;;;;;;23.05;13.27;;;17.00;77.90;;;;;;6254875;28;20048;-84
2022/03/16 13:27:41;;;;;;;22.10;11.18;;;16.90;78.60;;;;;;6254768;28;20068;-84
2022/03/16 13:30:43;;;;;;;29.15;14.02;;;16.70;77.80;;;;;;6254495;28;20413;-86
2022/03/16 13:33:46;;;;;;;17.42;9.35;;;16.60;79.10;;;;;;6254438;28;20050;-86
2022/03/16 13:36:50;;;;;;;22.15;12.40;;;16.60;78.40;;;;;;6255114;28;20190;-85
2022/03/16 13:39:57;;;;;;;23.48;11.73;;;16.50;79.20;;;;;;6255051;28;20060;-85
2022/03/16 13:43:05;;;;;;;21.77;12.30;;;16.60;78.90;;;;;;6254017;28;20060;-85
2022/03/16 13:46:09;;;;;;;20.85;11.82;;;16.50;79.60;;;;;;6254224;28;20045;-85
2022/03/16 13:49:14;;;;;;;22.35;12.82;;;16.50;79.40;;;;;;6260139;28;20044;-84
2022/03/16 13:52:18;;;;;;;25.60;12.45;;;16.50;80.00;;;;;;6254668;28;20056;-85
2022/03/16 13:55:21;;;;;;;28.73;11.27;;;16.60;81.10;;;;;;6254106;28;20049;-86
2022/03/16 13:58:26;;;;;;;19.95;10.90;;;16.80;79.30;;;;;;6251825;28;20498;-85
2022/03/16 14:01:29;;;;;;;21.20;10.60;;;16.70;78.50;;;;;;6256544;28;20049;-85
2022/03/16 14:04:31;;;;;;;20.83;9.90;;;16.80;79.50;;;;;;6252120;28;20045;-85
2022/03/16 14:07:38;;;;;;;17.80;11.00;;;16.80;78.70;;;;;;6256311;28;20045;-84
2022/03/16 14:10:41;;;;;;;16.65;9.80;;;16.80;78.60;;;;;;6260671;28;20052;-85
2022/03/16 14:13:45;;;;;;;19.27;11.32;;;16.70;78.90;;;;;;6261461;28;20041;-85
2022/03/16 14:16:47;;;;;;;24.33;10.35;;;16.60;78.20;;;;;;6254143;28;20419;-87
2022/03/16 14:19:49;;;;;;;18.40;10.02;;;16.40;78.50;;;;;;6259164;28;20055;-83
2022/03/16 14:22:52;;;;;;;15.40;8.88;;;16.20;78.90;;;;;;6257496;28;20057;-81
2022/03/16 14:25:57;;;;;;;16.27;9.95;;;16.10;79.20;;;;;;6254365;28;20497;-83
2022/03/16 14:29:00;;;;;;;14.20;8.82;;;16.00;79.30;;;;;;6254119;28;20054;-83
2022/03/16 14:32:02;;;;;;;20.83;10.48;;;16.00;81.70;;;;;;6253787;28;20045;-84
2022/03/16 14:35:04;;;;;;;15.95;9.45;;;16.10;81.50;;;;;;6255784;28;20056;-84
2022/03/16 14:38:07;;;;;;;17.63;9.32;;;16.30;79.80;;;;;;6258201;28;20041;-84
2022/03/16 14:41:09;;;;;;;19.63;11.07;;;16.20;79.50;;;;;;6257136;28;20045;-84
2022/03/16 14:44:12;;;;;;;18.20;9.05;;;16.20;79.70;;;;;;6258232;28;20069;-85
2022/03/16 14:47:14;;;;;;;17.75;8.38;;;16.30;79.10;;;;;;6255783;28;20053;-82
2022/03/16 14:50:16;;;;;;;19.17;10.13;;;16.10;79.20;;;;;;6256527;28;20041;-82
2022/03/16 14:53:18;;;;;;;17.00;9.05;;;16.10;79.30;;;;;;6252342;28;20120;-85
2022/03/16 14:56:20;;;;;;;17.80;9.35;;;16.10;79.50;;;;;;6253288;28;20092;-83
2022/03/16 14:59:23;;;;;;;17.70;9.75;;;16.20;79.80;;;;;;6254751;28;20063;-84
2022/03/16 15:02:26;;;;;;;18.85;11.52;;;16.30;79.60;;;;;;6251758;28;20184;-84
2022/03/16 15:05:33;;;;;;;17.58;10.45;;;16.30;79.80;;;;;;6251450;28;20045;-84
2022/03/16 15:08:36;;;;;;;19.33;10.25;;;16.40;79.60;;;;;;6253778;28;20037;-83
2022/03/16 15:11:46;;;;;;;12.68;8.30;;;16.40;78.90;;;;;;6276043;28;20045;-85
2022/03/16 15:18:59;;;;;;;17.02;8.48;;;16.40;79.10;;;;;;6254114;28;20049;-84
2022/03/16 15:26:25;;;;;;;16.23;10.18;;;16.30;79.00;;;;;;6107263;29;20161;-86
2022/03/16 15:33:32;;;;;;;21.17;10.75;;;16.10;78.90;;;;;;6199081;28;20531;-85
2022/03/16 15:36:37;;;;;;;18.83;10.85;;;16.00;79.40;;;;;;6227091;28;20053;-85
2022/03/16 15:43:05;;;;;;;17.23;9.52;;;15.80;79.10;;;;;;6252268;28;20076;-85
2022/03/16 15:46:10;;;;;;;16.92;10.60;;;15.70;79.40;;;;;;6241879;28;20054;-86
2022/03/16 15:49:22;;;;;;;16.30;10.32;;;15.70;79.10;;;;;;6242551;28;20132;-85
2022/03/16 15:52:33;;;;;;;21.25;10.40;;;15.50;79.30;;;;;;6260654;28;20057;-84
2022/03/16 15:55:39;;;;;;;16.90;10.32;;;15.50;79.00;;;;;;6267655;28;20053;-85
2022/03/16 15:58:41;;;;;;;13.70;8.15;;;15.50;79.00;;;;;;6277878;28;20045;-82
2022/03/16 16:01:43;;;;;;;16.45;10.35;;;15.50;79.10;;;;;;6278464;28;20053;-82
2022/03/16 16:04:45;;;;;;;20.83;9.57;;;15.50;79.00;;;;;;6278969;28;20052;-83
2022/03/16 16:07:51;;;;;;;16.75;9.32;;;15.40;78.90;;;;;;6273209;28;20104;-82
2022/03/16 16:11:11;;;;;;;17.60;10.10;;;15.40;79.00;;;;;;6285813;28;20056;-82
2022/03/16 16:14:32;;;;;;;13.90;8.75;;;15.40;78.80;;;;;;6285486;28;20072;-85
2022/03/16 16:17:34;;;;;;;15.48;9.63;;;15.30;79.40;;;;;;6274868;28;20576;-82